sensor_id;sensor_type;location;lat;lon;timestamp;P1;durP1;ratioP1;P2;durP2;ratioP2
40322;SDS011;26030;51.164;17.100;2023-11-21T00:01:49;4.00;;;2.00;;
40322;SDS011;26030;51.164;17.100;2023-11-21T00:06:54;4.20;;;1.80;;
40322;SDS011;26030;51.164;17.100;2023-11-21T00:11:58;2.10;;;1.60;;
40322;SDS011;26030;51.164;17.100;2023-11-21T00:17:06;3.90;;;1.70;;
40322;SDS011;26030;51.164;17.100;2023-11-21T00:22:10;1.90;;;1.70;;
40322;SDS011;26030;51.164;17.100;2023-11-21T00:27:15;7.80;;;1.90;;
40322;SDS011;26030;51.164;17.100;2023-11-21T00:32:19;2.00;;;1.50;;
40322;SDS011;26030;51.164;17.100;2023-11-21T00:37:23;2.10;;;1.70;;
40322;SDS011;26030;51.164;17.100;2023-11-21T00:42:29;1.80;;;1.40;;
40322;SDS011;26030;51.164;17.100;2023-11-21T00:47:33;2.60;;;1.40;;
40322;SDS011;26030;51.164;17.100;2023-11-21T00:52:38;3.00;;;1.70;;
40322;SDS011;26030;51.164;17.100;2023-11-21T00:57:42;4.30;;;1.70;;
40322;SDS011;26030;51.164;17.100;2023-11-21T01:02:46;2.00;;;1.30;;
40322;SDS011;26030;51.164;17.100;2023-11-21T01:07:52;2.00;;;1.90;;
40322;SDS011;26030;51.164;17.100;2023-11-21T01:12:56;1.80;;;1.70;;
40322;SDS011;26030;51.164;17.100;2023-11-21T01:18:02;2.40;;;1.60;;
40322;SDS011;26030;51.164;17.100;2023-11-21T01:23:08;3.80;;;1.50;;
40322;SDS011;26030;51.164;17.100;2023-11-21T01:28:12;2.20;;;1.50;;
40322;SDS011;26030;51.164;17.100;2023-11-21T01:33:16;1.90;;;1.20;;
40322;SDS011;26030;51.164;17.100;2023-11-21T01:38:21;1.60;;;1.30;;
40322;SDS011;26030;51.164;17.100;2023-11-21T01:43:26;1.80;;;1.20;;
40322;SDS011;26030;51.164;17.100;2023-11-21T01:48:30;2.10;;;1.20;;
40322;SDS011;26030;51.164;17.100;2023-11-21T01:53:35;1.70;;;1.20;;
40322;SDS011;26030;51.164;17.100;2023-11-21T01:58:41;1.90;;;1.30;;
40322;SDS011;26030;51.164;17.100;2023-11-21T02:03:47;1.70;;;1.50;;
40322;SDS011;26030;51.164;17.100;2023-11-21T02:08:52;1.30;;;1.20;;
40322;SDS011;26030;51.164;17.100;2023-11-21T02:13:59;2.50;;;1.30;;
40322;SDS011;26030;51.164;17.100;2023-11-21T02:19:07;1.30;;;0.90;;
40322;SDS011;26030;51.164;17.100;2023-11-21T02:24:13;1.20;;;1.00;;
40322;SDS011;26030;51.164;17.100;2023-11-21T02:29:20;1.40;;;1.20;;
40322;SDS011;26030;51.164;17.100;2023-11-21T02:34:32;1.70;;;1.30;;
40322;SDS011;26030;51.164;17.100;2023-11-21T02:39:37;1.00;;;0.90;;
40322;SDS011;26030;51.164;17.100;2023-11-21T02:44:42;1.80;;;1.10;;
40322;SDS011;26030;51.164;17.100;2023-11-21T02:49:46;1.20;;;1.10;;
40322;SDS011;26030;51.164;17.100;2023-11-21T02:54:50;1.10;;;1.00;;
40322;SDS011;26030;51.164;17.100;2023-11-21T02:59:55;2.30;;;1.30;;
40322;SDS011;26030;51.164;17.100;2023-11-21T03:05:00;1.90;;;1.30;;
40322;SDS011;26030;51.164;17.100;2023-11-21T03:10:05;2.00;;;1.30;;
40322;SDS011;26030;51.164;17.100;2023-11-21T03:15:10;1.20;;;1.20;;
40322;SDS011;26030;51.164;17.100;2023-11-21T03:20:14;2.40;;;1.10;;
40322;SDS011;26030;51.164;17.100;2023-11-21T03:25:20;1.90;;;0.90;;
40322;SDS011;26030;51.164;17.100;2023-11-21T03:30:24;1.30;;;1.00;;
40322;SDS011;26030;51.164;17.100;2023-11-21T03:35:29;2.10;;;1.00;;
40322;SDS011;26030;51.164;17.100;2023-11-21T03:40:33;1.00;;;0.90;;
40322;SDS011;26030;51.164;17.100;2023-11-21T03:45:38;1.20;;;0.90;;
40322;SDS011;26030;51.164;17.100;2023-11-21T03:50:44;1.80;;;0.90;;
40322;SDS011;26030;51.164;17.100;2023-11-21T03:55:48;1.00;;;0.90;;
40322;SDS011;26030;51.164;17.100;2023-11-21T04:00:54;1.40;;;0.90;;
40322;SDS011;26030;51.164;17.100;2023-11-21T04:05:58;1.30;;;1.00;;
40322;SDS011;26030;51.164;17.100;2023-11-21T04:11:02;1.60;;;0.80;;
40322;SDS011;26030;51.164;17.100;2023-11-21T04:16:08;1.70;;;1.00;;
40322;SDS011;26030;51.164;17.100;2023-11-21T04:21:13;1.50;;;1.00;;
40322;SDS011;26030;51.164;17.100;2023-11-21T04:26:17;1.60;;;0.90;;
40322;SDS011;26030;51.164;17.100;2023-11-21T04:31:21;1.20;;;1.00;;
40322;SDS011;26030;51.164;17.100;2023-11-21T04:36:26;1.80;;;0.80;;
40322;SDS011;26030;51.164;17.100;2023-11-21T04:41:31;1.00;;;1.00;;
40322;SDS011;26030;51.164;17.100;2023-11-21T04:46:35;1.30;;;1.20;;
40322;SDS011;26030;51.164;17.100;2023-11-21T04:51:40;1.20;;;0.80;;
40322;SDS011;26030;51.164;17.100;2023-11-21T04:56:44;1.20;;;1.10;;
40322;SDS011;26030;51.164;17.100;2023-11-21T05:01:48;0.80;;;0.80;;
40322;SDS011;26030;51.164;17.100;2023-11-21T05:06:53;1.20;;;0.80;;
40322;SDS011;26030;51.164;17.100;2023-11-21T05:12:01;1.50;;;1.10;;
40322;SDS011;26030;51.164;17.100;2023-11-21T05:17:05;0.80;;;0.80;;
40322;SDS011;26030;51.164;17.100;2023-11-21T05:22:10;0.80;;;0.80;;
40322;SDS011;26030;51.164;17.100;2023-11-21T05:27:15;1.20;;;0.90;;
40322;SDS011;26030;51.164;17.100;2023-11-21T05:32:20;1.00;;;0.90;;
40322;SDS011;26030;51.164;17.100;2023-11-21T05:37:24;1.20;;;1.10;;
40322;SDS011;26030;51.164;17.100;2023-11-21T05:42:30;0.60;;;0.60;;
40322;SDS011;26030;51.164;17.100;2023-11-21T05:47:44;0.60;;;0.60;;
40322;SDS011;26030;51.164;17.100;2023-11-21T05:52:50;1.50;;;1.00;;
40322;SDS011;26030;51.164;17.100;2023-11-21T05:57:54;0.70;;;0.70;;
40322;SDS011;26030;51.164;17.100;2023-11-21T06:02:59;0.90;;;0.80;;
40322;SDS011;26030;51.164;17.100;2023-11-21T06:08:04;1.00;;;0.90;;
40322;SDS011;26030;51.164;17.100;2023-11-21T06:13:08;0.80;;;0.70;;
40322;SDS011;26030;51.164;17.100;2023-11-21T06:18:12;1.90;;;0.90;;
40322;SDS011;26030;51.164;17.100;2023-11-21T06:23:18;0.90;;;0.90;;
40322;SDS011;26030;51.164;17.100;2023-11-21T06:28:22;2.40;;;1.60;;
40322;SDS011;26030;51.164;17.100;2023-11-21T06:33:26;0.80;;;0.70;;
40322;SDS011;26030;51.164;17.100;2023-11-21T06:38:31;4.70;;;0.90;;
40322;SDS011;26030;51.164;17.100;2023-11-21T06:43:36;2.10;;;1.00;;
40322;SDS011;26030;51.164;17.100;2023-11-21T06:48:44;1.00;;;0.90;;
40322;SDS011;26030;51.164;17.100;2023-11-21T06:53:49;0.90;;;0.80;;
40322;SDS011;26030;51.164;17.100;2023-11-21T06:58:53;7.60;;;0.90;;
40322;SDS011;26030;51.164;17.100;2023-11-21T07:03:58;4.00;;;1.00;;
40322;SDS011;26030;51.164;17.100;2023-11-21T07:09:03;1.90;;;0.80;;
40322;SDS011;26030;51.164;17.100;2023-11-21T07:14:07;2.80;;;0.70;;
40322;SDS011;26030;51.164;17.100;2023-11-21T07:19:13;1.70;;;0.60;;
40322;SDS011;26030;51.164;17.100;2023-11-21T07:24:18;2.30;;;0.80;;
40322;SDS011;26030;51.164;17.100;2023-11-21T07:29:23;2.80;;;0.70;;
40322;SDS011;26030;51.164;17.100;2023-11-21T07:34:29;2.00;;;1.10;;
40322;SDS011;26030;51.164;17.100;2023-11-21T07:39:33;4.00;;;0.80;;
40322;SDS011;26030;51.164;17.100;2023-11-21T07:44:37;6.60;;;1.10;;
40322;SDS011;26030;51.164;17.100;2023-11-21T07:49:42;4.60;;;1.10;;
40322;SDS011;26030;51.164;17.100;2023-11-21T07:54:47;3.00;;;0.90;;
40322;SDS011;26030;51.164;17.100;2023-11-21T07:59:51;5.50;;;0.90;;
40322;SDS011;26030;51.164;17.100;2023-11-21T08:04:57;1.30;;;1.10;;
40322;SDS011;26030;51.164;17.100;2023-11-21T08:10:03;7.40;;;1.20;;
40322;SDS011;26030;51.164;17.100;2023-11-21T08:15:09;2.90;;;1.10;;
40322;SDS011;26030;51.164;17.100;2023-11-21T08:20:14;4.70;;;1.30;;
40322;SDS011;26030;51.164;17.100;2023-11-21T08:25:22;2.10;;;1.30;;
40322;SDS011;26030;51.164;17.100;2023-11-21T08:30:26;6.10;;;1.40;;
40322;SDS011;26030;51.164;17.100;2023-11-21T08:35:34;4.20;;;1.20;;
40322;SDS011;26030;51.164;17.100;2023-11-21T08:40:43;4.50;;;1.50;;
40322;SDS011;26030;51.164;17.100;2023-11-21T08:45:47;3.70;;;1.20;;
40322;SDS011;26030;51.164;17.100;2023-11-21T08:50:51;6.00;;;1.50;;
40322;SDS011;26030;51.164;17.100;2023-11-21T08:55:55;5.00;;;1.50;;
40322;SDS011;26030;51.164;17.100;2023-11-21T09:01:01;5.70;;;2.50;;
40322;SDS011;26030;51.164;17.100;2023-11-21T09:06:08;6.70;;;2.80;;
40322;SDS011;26030;51.164;17.100;2023-11-21T09:11:13;6.50;;;2.50;;
40322;SDS011;26030;51.164;17.100;2023-11-21T09:16:17;7.00;;;2.60;;
40322;SDS011;26030;51.164;17.100;2023-11-21T09:21:22;5.40;;;2.60;;
40322;SDS011;26030;51.164;17.100;2023-11-21T09:26:28;7.00;;;2.90;;
40322;SDS011;26030;51.164;17.100;2023-11-21T09:31:34;6.50;;;2.30;;
40322;SDS011;26030;51.164;17.100;2023-11-21T09:36:40;6.10;;;2.20;;
40322;SDS011;26030;51.164;17.100;2023-11-21T09:41:52;5.70;;;2.60;;
40322;SDS011;26030;51.164;17.100;2023-11-21T09:47:02;3.50;;;2.30;;
40322;SDS011;26030;51.164;17.100;2023-11-21T09:52:08;4.80;;;2.20;;
40322;SDS011;26030;51.164;17.100;2023-11-21T09:57:24;7.00;;;2.30;;
40322;SDS011;26030;51.164;17.100;2023-11-21T10:02:28;3.90;;;2.00;;
40322;SDS011;26030;51.164;17.100;2023-11-21T10:07:35;2.90;;;1.80;;
40322;SDS011;26030;51.164;17.100;2023-11-21T10:12:41;3.80;;;2.40;;
40322;SDS011;26030;51.164;17.100;2023-11-21T10:17:50;3.60;;;1.90;;
40322;SDS011;26030;51.164;17.100;2023-11-21T10:22:57;2.90;;;1.90;;
40322;SDS011;26030;51.164;17.100;2023-11-21T10:28:02;6.10;;;2.70;;
40322;SDS011;26030;51.164;17.100;2023-11-21T10:33:10;2.60;;;2.00;;
40322;SDS011;26030;51.164;17.100;2023-11-21T10:38:18;3.00;;;2.20;;
40322;SDS011;26030;51.164;17.100;2023-11-21T10:43:26;3.40;;;2.50;;
40322;SDS011;26030;51.164;17.100;2023-11-21T10:48:31;6.80;;;2.90;;
40322;SDS011;26030;51.164;17.100;2023-11-21T10:53:40;2.80;;;2.60;;
40322;SDS011;26030;51.164;17.100;2023-11-21T10:58:49;4.70;;;2.60;;
40322;SDS011;26030;51.164;17.100;2023-11-21T11:03:56;4.40;;;2.70;;
40322;SDS011;26030;51.164;17.100;2023-11-21T11:09:02;3.00;;;2.50;;
40322;SDS011;26030;51.164;17.100;2023-11-21T11:14:10;6.50;;;3.00;;
40322;SDS011;26030;51.164;17.100;2023-11-21T11:19:15;4.50;;;2.60;;
40322;SDS011;26030;51.164;17.100;2023-11-21T11:40:45;3.70;;;2.50;;
40322;SDS011;26030;51.164;17.100;2023-11-21T11:45:50;3.90;;;3.40;;
40322;SDS011;26030;51.164;17.100;2023-11-21T11:56:28;3.40;;;3.10;;
40322;SDS011;26030;51.164;17.100;2023-11-21T12:01:38;4.10;;;3.20;;
40322;SDS011;26030;51.164;17.100;2023-11-21T12:06:52;3.50;;;3.00;;
40322;SDS011;26030;51.164;17.100;2023-11-21T12:12:00;3.50;;;2.60;;
40322;SDS011;26030;51.164;17.100;2023-11-21T12:17:05;3.00;;;2.70;;
40322;SDS011;26030;51.164;17.100;2023-11-21T12:22:10;3.00;;;2.70;;
40322;SDS011;26030;51.164;17.100;2023-11-21T12:27:15;4.10;;;3.10;;
40322;SDS011;26030;51.164;17.100;2023-11-21T12:32:21;3.80;;;3.00;;
40322;SDS011;26030;51.164;17.100;2023-11-21T12:37:25;3.60;;;2.70;;
40322;SDS011;26030;51.164;17.100;2023-11-21T12:42:29;3.20;;;3.00;;
40322;SDS011;26030;51.164;17.100;2023-11-21T12:47:35;3.60;;;3.20;;
40322;SDS011;26030;51.164;17.100;2023-11-21T12:52:41;3.20;;;2.70;;
40322;SDS011;26030;51.164;17.100;2023-11-21T12:57:55;3.00;;;2.60;;
40322;SDS011;26030;51.164;17.100;2023-11-21T13:03:02;3.90;;;3.10;;
40322;SDS011;26030;51.164;17.100;2023-11-21T13:08:08;3.60;;;3.10;;
40322;SDS011;26030;51.164;17.100;2023-11-21T13:13:14;3.20;;;2.90;;
40322;SDS011;26030;51.164;17.100;2023-11-21T13:18:28;5.60;;;2.80;;
40322;SDS011;26030;51.164;17.100;2023-11-21T13:23:35;5.20;;;3.50;;
40322;SDS011;26030;51.164;17.100;2023-11-21T13:28:41;5.00;;;3.10;;
40322;SDS011;26030;51.164;17.100;2023-11-21T13:33:52;5.80;;;3.30;;
40322;SDS011;26030;51.164;17.100;2023-11-21T13:39:02;4.00;;;3.30;;
40322;SDS011;26030;51.164;17.100;2023-11-21T13:44:19;4.80;;;3.10;;
40322;SDS011;26030;51.164;17.100;2023-11-21T13:49:38;4.80;;;3.10;;
40322;SDS011;26030;51.164;17.100;2023-11-21T13:54:45;3.40;;;2.70;;
40322;SDS011;26030;51.164;17.100;2023-11-21T13:59:50;3.70;;;3.00;;
40322;SDS011;26030;51.164;17.100;2023-11-21T14:04:55;6.90;;;2.90;;
40322;SDS011;26030;51.164;17.100;2023-11-21T14:10:04;3.80;;;3.00;;
40322;SDS011;26030;51.164;17.100;2023-11-21T14:15:11;3.30;;;2.90;;
40322;SDS011;26030;51.164;17.100;2023-11-21T14:20:21;5.60;;;2.90;;
40322;SDS011;26030;51.164;17.100;2023-11-21T14:25:26;3.90;;;3.00;;
40322;SDS011;26030;51.164;17.100;2023-11-21T14:30:31;4.80;;;2.80;;
40322;SDS011;26030;51.164;17.100;2023-11-21T14:35:39;4.10;;;2.60;;
40322;SDS011;26030;51.164;17.100;2023-11-21T14:40:43;5.00;;;2.50;;
40322;SDS011;26030;51.164;17.100;2023-11-21T14:45:48;3.00;;;2.70;;
40322;SDS011;26030;51.164;17.100;2023-11-21T14:50:53;5.30;;;3.10;;
40322;SDS011;26030;51.164;17.100;2023-11-21T14:56:07;3.30;;;2.60;;
40322;SDS011;26030;51.164;17.100;2023-11-21T15:01:11;4.30;;;2.80;;
40322;SDS011;26030;51.164;17.100;2023-11-21T15:06:16;2.90;;;2.60;;
40322;SDS011;26030;51.164;17.100;2023-11-21T15:11:31;4.20;;;3.20;;
40322;SDS011;26030;51.164;17.100;2023-11-21T15:16:36;7.00;;;2.90;;
40322;SDS011;26030;51.164;17.100;2023-11-21T15:21:47;3.70;;;2.80;;
40322;SDS011;26030;51.164;17.100;2023-11-21T15:26:51;9.90;;;3.00;;
40322;SDS011;26030;51.164;17.100;2023-11-21T15:31:56;3.10;;;2.80;;
40322;SDS011;26030;51.164;17.100;2023-11-21T15:37:01;3.50;;;3.20;;
40322;SDS011;26030;51.164;17.100;2023-11-21T15:42:06;4.30;;;3.00;;
40322;SDS011;26030;51.164;17.100;2023-11-21T15:47:11;4.90;;;3.00;;
40322;SDS011;26030;51.164;17.100;2023-11-21T15:52:16;4.40;;;3.10;;
40322;SDS011;26030;51.164;17.100;2023-11-21T15:57:22;4.40;;;3.00;;
40322;SDS011;26030;51.164;17.100;2023-11-21T16:02:27;3.70;;;3.10;;
40322;SDS011;26030;51.164;17.100;2023-11-21T16:07:31;3.30;;;3.00;;
40322;SDS011;26030;51.164;17.100;2023-11-21T16:12:39;3.70;;;3.20;;
40322;SDS011;26030;51.164;17.100;2023-11-21T16:17:44;6.70;;;3.80;;
40322;SDS011;26030;51.164;17.100;2023-11-21T16:22:51;4.80;;;3.90;;
40322;SDS011;26030;51.164;17.100;2023-11-21T16:27:55;9.00;;;4.30;;
40322;SDS011;26030;51.164;17.100;2023-11-21T16:33:03;8.30;;;4.20;;
40322;SDS011;26030;51.164;17.100;2023-11-21T16:38:10;6.60;;;4.60;;
40322;SDS011;26030;51.164;17.100;2023-11-21T16:43:14;6.10;;;4.40;;
40322;SDS011;26030;51.164;17.100;2023-11-21T16:48:20;3.80;;;3.10;;
40322;SDS011;26030;51.164;17.100;2023-11-21T16:53:24;7.70;;;3.40;;
40322;SDS011;26030;51.164;17.100;2023-11-21T16:58:29;4.70;;;3.90;;
40322;SDS011;26030;51.164;17.100;2023-11-21T17:03:35;4.00;;;3.70;;
40322;SDS011;26030;51.164;17.100;2023-11-21T17:08:40;4.10;;;3.60;;
40322;SDS011;26030;51.164;17.100;2023-11-21T17:13:44;6.90;;;4.00;;
40322;SDS011;26030;51.164;17.100;2023-11-21T17:18:50;4.10;;;3.60;;
40322;SDS011;26030;51.164;17.100;2023-11-21T17:23:57;4.10;;;3.70;;
40322;SDS011;26030;51.164;17.100;2023-11-21T17:29:01;4.50;;;4.00;;
40322;SDS011;26030;51.164;17.100;2023-11-21T17:34:07;8.80;;;4.70;;
40322;SDS011;26030;51.164;17.100;2023-11-21T17:39:11;20.60;;;4.10;;
40322;SDS011;26030;51.164;17.100;2023-11-21T17:44:17;4.50;;;4.00;;
40322;SDS011;26030;51.164;17.100;2023-11-21T17:49:21;6.10;;;4.60;;
40322;SDS011;26030;51.164;17.100;2023-11-21T17:54:25;5.90;;;3.80;;
40322;SDS011;26030;51.164;17.100;2023-11-21T17:59:31;8.40;;;4.50;;
40322;SDS011;26030;51.164;17.100;2023-11-21T18:04:36;7.10;;;4.20;;
40322;SDS011;26030;51.164;17.100;2023-11-21T18:09:41;8.00;;;4.40;;
40322;SDS011;26030;51.164;17.100;2023-11-21T18:14:46;6.40;;;4.40;;
40322;SDS011;26030;51.164;17.100;2023-11-21T18:19:57;5.40;;;4.30;;
40322;SDS011;26030;51.164;17.100;2023-11-21T18:25:02;4.60;;;4.20;;
40322;SDS011;26030;51.164;17.100;2023-11-21T18:30:08;5.80;;;3.60;;
40322;SDS011;26030;51.164;17.100;2023-11-21T18:35:13;4.60;;;4.00;;
40322;SDS011;26030;51.164;17.100;2023-11-21T18:40:17;6.20;;;3.90;;
40322;SDS011;26030;51.164;17.100;2023-11-21T18:45:25;4.90;;;3.60;;
40322;SDS011;26030;51.164;17.100;2023-11-21T18:50:34;5.60;;;4.40;;
40322;SDS011;26030;51.164;17.100;2023-11-21T18:55:43;7.70;;;4.20;;
40322;SDS011;26030;51.164;17.100;2023-11-21T19:00:52;6.20;;;4.20;;
40322;SDS011;26030;51.164;17.100;2023-11-21T19:06:01;4.70;;;4.30;;
40322;SDS011;26030;51.164;17.100;2023-11-21T19:11:10;4.60;;;4.10;;
40322;SDS011;26030;51.164;17.100;2023-11-21T19:16:23;4.60;;;4.20;;
40322;SDS011;26030;51.164;17.100;2023-11-21T19:21:29;8.90;;;4.10;;
40322;SDS011;26030;51.164;17.100;2023-11-21T19:26:39;4.90;;;4.50;;
40322;SDS011;26030;51.164;17.100;2023-11-21T19:31:47;4.60;;;4.20;;
40322;SDS011;26030;51.164;17.100;2023-11-21T19:36:53;8.30;;;4.90;;
40322;SDS011;26030;51.164;17.100;2023-11-21T19:42:00;5.10;;;4.70;;
40322;SDS011;26030;51.164;17.100;2023-11-21T19:47:05;6.50;;;4.90;;
40322;SDS011;26030;51.164;17.100;2023-11-21T19:52:11;4.80;;;4.30;;
40322;SDS011;26030;51.164;17.100;2023-11-21T19:57:17;13.90;;;5.40;;
40322;SDS011;26030;51.164;17.100;2023-11-21T20:02:21;6.00;;;5.40;;
40322;SDS011;26030;51.164;17.100;2023-11-21T20:07:31;6.70;;;4.60;;
40322;SDS011;26030;51.164;17.100;2023-11-21T20:12:39;7.30;;;5.10;;
40322;SDS011;26030;51.164;17.100;2023-11-21T20:17:48;10.00;;;5.30;;
40322;SDS011;26030;51.164;17.100;2023-11-21T20:22:53;8.10;;;4.90;;
40322;SDS011;26030;51.164;17.100;2023-11-21T20:28:01;5.40;;;4.90;;
40322;SDS011;26030;51.164;17.100;2023-11-21T20:33:05;8.00;;;5.20;;
40322;SDS011;26030;51.164;17.100;2023-11-21T20:38:14;9.00;;;5.40;;
40322;SDS011;26030;51.164;17.100;2023-11-21T20:43:18;9.10;;;5.10;;
40322;SDS011;26030;51.164;17.100;2023-11-21T20:48:25;9.50;;;5.10;;
40322;SDS011;26030;51.164;17.100;2023-11-21T20:53:34;11.00;;;5.60;;
40322;SDS011;26030;51.164;17.100;2023-11-21T20:58:40;6.90;;;5.00;;
40322;SDS011;26030;51.164;17.100;2023-11-21T21:03:47;9.10;;;5.00;;
40322;SDS011;26030;51.164;17.100;2023-11-21T21:08:53;5.70;;;4.80;;
40322;SDS011;26030;51.164;17.100;2023-11-21T21:13:59;9.00;;;5.00;;
40322;SDS011;26030;51.164;17.100;2023-11-21T21:19:03;7.20;;;5.00;;
40322;SDS011;26030;51.164;17.100;2023-11-21T21:24:08;7.10;;;5.30;;
40322;SDS011;26030;51.164;17.100;2023-11-21T21:29:13;5.30;;;4.80;;
40322;SDS011;26030;51.164;17.100;2023-11-21T21:34:18;4.70;;;4.00;;
40322;SDS011;26030;51.164;17.100;2023-11-21T21:39:23;5.10;;;4.60;;
40322;SDS011;26030;51.164;17.100;2023-11-21T21:44:27;8.60;;;4.80;;
40322;SDS011;26030;51.164;17.100;2023-11-21T21:49:31;6.20;;;4.60;;
40322;SDS011;26030;51.164;17.100;2023-11-21T21:54:36;5.40;;;4.40;;
40322;SDS011;26030;51.164;17.100;2023-11-21T21:59:41;10.20;;;4.60;;
40322;SDS011;26030;51.164;17.100;2023-11-21T22:04:46;12.90;;;5.20;;
40322;SDS011;26030;51.164;17.100;2023-11-21T22:09:51;9.90;;;5.30;;
40322;SDS011;26030;51.164;17.100;2023-11-21T22:14:55;16.50;;;5.70;;
40322;SDS011;26030;51.164;17.100;2023-11-21T22:19:59;7.50;;;5.20;;
40322;SDS011;26030;51.164;17.100;2023-11-21T22:25:06;10.20;;;5.00;;
40322;SDS011;26030;51.164;17.100;2023-11-21T22:30:11;9.80;;;5.00;;
40322;SDS011;26030;51.164;17.100;2023-11-21T22:35:15;7.40;;;4.60;;
40322;SDS011;26030;51.164;17.100;2023-11-21T22:40:19;5.70;;;5.10;;
40322;SDS011;26030;51.164;17.100;2023-11-21T22:45:23;6.80;;;4.80;;
40322;SDS011;26030;51.164;17.100;2023-11-21T22:50:28;8.10;;;5.20;;
40322;SDS011;26030;51.164;17.100;2023-11-21T22:55:32;6.30;;;5.40;;
40322;SDS011;26030;51.164;17.100;2023-11-21T23:00:36;7.50;;;5.00;;
40322;SDS011;26030;51.164;17.100;2023-11-21T23:05:41;8.50;;;5.30;;
40322;SDS011;26030;51.164;17.100;2023-11-21T23:10:45;9.70;;;5.20;;
40322;SDS011;26030;51.164;17.100;2023-11-21T23:15:50;5.00;;;4.50;;
40322;SDS011;26030;51.164;17.100;2023-11-21T23:20:56;8.50;;;5.60;;
40322;SDS011;26030;51.164;17.100;2023-11-21T23:26:01;6.20;;;4.70;;
40322;SDS011;26030;51.164;17.100;2023-11-21T23:31:05;7.10;;;4.70;;
40322;SDS011;26030;51.164;17.100;2023-11-21T23:36:09;7.10;;;5.80;;
40322;SDS011;26030;51.164;17.100;2023-11-21T23:41:14;7.30;;;4.60;;
40322;SDS011;26030;51.164;17.100;2023-11-21T23:46:20;6.20;;;5.00;;
40322;SDS011;26030;51.164;17.100;2023-11-21T23:51:24;12.60;;;7.50;;
40322;SDS011;26030;51.164;17.100;2023-11-21T23:56:29;5.70;;;5.00;;
